createdAt,value
2022-08-05T00:01:36.176Z,96195.44
2022-08-05T00:04:16.969Z,96195.94
2022-08-05T00:06:45.473Z,96201.28
2022-08-05T00:09:19.427Z,96211.47
2022-08-05T00:11:48.680Z,96213.25
2022-08-05T00:14:27.587Z,96193.16
2022-08-05T00:16:57.220Z,96217.69
2022-08-05T00:19:33.445Z,96211.84
2022-08-05T00:22:11.133Z,96216.41
2022-08-05T00:24:42.479Z,96210.94
2022-08-05T00:27:14.173Z,96219.47
2022-08-05T00:29:44.896Z,96212.66
2022-08-05T00:32:15.082Z,96217.50
2022-08-05T00:35:03.928Z,96223.28
2022-08-05T00:37:51.395Z,96225.34
2022-08-05T00:40:27.550Z,96220.03
2022-08-05T00:42:58.689Z,96237.38
2022-08-05T00:45:38.065Z,96233.00
2022-08-05T00:48:08.127Z,96237.28
2022-08-05T00:50:37.093Z,96237.44
2022-08-05T00:53:09.811Z,96248.91
2022-08-05T00:55:53.930Z,96260.19
2022-08-05T00:58:21.647Z,96258.69
2022-08-05T01:00:56.323Z,96264.25
2022-08-05T01:03:24.222Z,96272.59
2022-08-05T01:05:58.879Z,96281.75
2022-08-05T01:08:30.393Z,96286.09
2022-08-05T01:11:22.268Z,96295.19
2022-08-05T01:14:03.931Z,96294.22
2022-08-05T01:16:50.050Z,96286.75
2022-08-05T01:19:56.334Z,96298.66
2022-08-05T01:22:36.684Z,96295.59
2022-08-05T01:25:40.811Z,96296.22
2022-08-05T01:28:24.281Z,96305.59
2022-08-05T01:30:55.350Z,96296.78
2022-08-05T01:33:35.473Z,96312.38
2022-08-05T01:36:12.902Z,96311.88
2022-08-05T01:38:48.464Z,96312.53
2022-08-05T01:41:22.041Z,96321.84
2022-08-05T01:43:52.469Z,96329.66
2022-08-05T01:46:42.529Z,96335.09
2022-08-05T01:49:23.182Z,96347.06
2022-08-05T01:51:56.510Z,96360.22
2022-08-05T01:54:30.552Z,96357.72
2022-08-05T01:58:10.721Z,96348.44
2022-08-05T01:59:50.287Z,96345.84
2022-08-05T02:02:26.295Z,96316.50
2022-08-05T02:04:59.479Z,96306.84
2022-08-05T02:07:30.461Z,96302.78
2022-08-05T02:09:58.746Z,96299.59
2022-08-05T02:12:35.546Z,96300.41
2022-08-05T02:15:12.356Z,96309.78
2022-08-05T02:18:32.402Z,96320.84
2022-08-05T02:20:41.484Z,96327.69
2022-08-05T02:23:12.837Z,96325.25
2022-08-05T02:25:49.104Z,96326.78
2022-08-05T02:28:29.168Z,96317.50
2022-08-05T02:31:07.534Z,96316.19
2022-08-05T02:33:43.227Z,96307.84
2022-08-05T02:36:15.566Z,96326.34
2022-08-05T02:38:53.243Z,96322.34
2022-08-05T02:41:23.355Z,96316.44
2022-08-05T02:44:06.111Z,96315.31
2022-08-05T02:46:53.114Z,96319.56
2022-08-05T02:49:36.893Z,96317.63
2022-08-05T02:52:11.621Z,96323.97
2022-08-05T02:54:52.064Z,96324.28
2022-08-05T02:58:09.708Z,96328.13
2022-08-05T03:00:10.777Z,96326.72
2022-08-05T03:02:42.788Z,96315.56
2022-08-05T03:05:13.492Z,96314.84
2022-08-05T03:08:01.603Z,96313.66
2022-08-05T03:10:30.808Z,96309.53
2022-08-05T03:15:28.368Z,96311.94
2022-08-05T03:17:58.094Z,96308.91
2022-08-05T03:20:27.316Z,96302.53
2022-08-05T03:22:57.494Z,96305.16
2022-08-05T03:26:03.569Z,96304.78
2022-08-05T03:28:18.770Z,96306.59
2022-08-05T03:30:49.609Z,96306.81
2022-08-05T03:33:20.314Z,96297.56
2022-08-05T03:35:50.025Z,96298.03
2022-08-05T03:38:32.701Z,96269.56
2022-08-05T03:41:08.417Z,96285.56
2022-08-05T03:44:08.731Z,96279.41
2022-08-05T03:46:29.827Z,96280.81
2022-08-05T03:48:59.348Z,96273.47
2022-08-05T03:52:38.779Z,96272.88
2022-08-05T03:56:03.934Z,96276.91
2022-08-05T03:57:41.129Z,96285.97
2022-08-05T04:00:12.729Z,96273.69
2022-08-05T04:02:58.172Z,96276.41
2022-08-05T04:05:33.704Z,96281.03
2022-08-05T04:08:03.759Z,96279.41
2022-08-05T04:10:38.142Z,96278.00
2022-08-05T04:13:07.474Z,96281.84
2022-08-05T04:15:36.517Z,96273.88
2022-08-05T04:18:06.729Z,96271.47
2022-08-05T04:20:37.039Z,96264.50
2022-08-05T04:23:05.175Z,96263.91
2022-08-05T04:25:57.403Z,96261.88
2022-08-05T04:28:21.142Z,96255.63
2022-08-05T04:31:01.124Z,96255.56
2022-08-05T04:33:54.923Z,96259.06
2022-08-05T04:36:44.652Z,96261.59
2022-08-05T04:39:07.483Z,96261.59
2022-08-05T04:41:37.794Z,96268.75
2022-08-05T04:44:09.605Z,96271.97
2022-08-05T04:46:38.170Z,96278.41
2022-08-05T04:49:05.998Z,96271.31
2022-08-05T04:51:41.616Z,96276.34
2022-08-05T04:54:10.441Z,96280.66
2022-08-05T04:56:40.174Z,96286.00
2022-08-05T04:59:22.160Z,96289.59
2022-08-05T05:02:07.207Z,96288.72
2022-08-05T05:04:38.245Z,96289.41
2022-08-05T05:07:09.516Z,96294.19
2022-08-05T05:09:38.004Z,96283.50
2022-08-05T05:12:06.505Z,96285.00
2022-08-05T05:14:36.227Z,96286.47
2022-08-05T05:17:07.564Z,96282.09
2022-08-05T05:19:44.372Z,96291.78
2022-08-05T05:22:24.320Z,96280.91
2022-08-05T05:24:57.653Z,96278.91
2022-08-05T05:27:44.994Z,96290.97
2022-08-05T05:30:29.624Z,96284.97
2022-08-05T05:33:00.933Z,96277.09
2022-08-05T05:35:31.638Z,96283.31
2022-08-05T05:38:09.448Z,96294.06
2022-08-05T05:40:49.588Z,96275.81
2022-08-05T05:43:27.736Z,96289.81
2022-08-05T05:46:13.770Z,96288.22
2022-08-05T05:48:46.225Z,96288.84
2022-08-05T05:51:20.630Z,96304.13
2022-08-05T05:53:57.883Z,96306.09
2022-08-05T05:56:32.507Z,96295.66
2022-08-05T05:59:03.623Z,96303.69
2022-08-05T06:01:37.980Z,96297.53
2022-08-05T06:04:07.958Z,96312.63
2022-08-05T06:06:35.881Z,96314.88
2022-08-05T06:09:07.606Z,96310.56
2022-08-05T06:11:35.529Z,96323.13
2022-08-05T06:14:07.365Z,96339.34
2022-08-05T06:16:37.164Z,96343.53
2022-08-05T06:19:07.583Z,96358.00
2022-08-05T06:21:38.724Z,96365.03
2022-08-05T06:24:12.819Z,96375.28
2022-08-05T06:26:51.714Z,96374.50
2022-08-05T06:29:43.225Z,96381.25
2022-08-05T06:32:21.005Z,96382.72
2022-08-05T06:37:55.666Z,96378.56
2022-08-05T06:40:13.724Z,96369.38
2022-08-05T06:42:41.739Z,96367.44
2022-08-05T06:45:10.268Z,96379.97
2022-08-05T06:48:37.162Z,96412.34
2022-08-05T06:50:37.156Z,96419.91
2022-08-05T06:53:11.580Z,96419.00
2022-08-05T06:55:41.923Z,96422.59
2022-08-05T06:58:29.261Z,96408.06
2022-08-05T07:00:59.413Z,96419.97
2022-08-05T07:03:32.490Z,96423.19
2022-08-05T07:06:05.649Z,96424.72
2022-08-05T07:08:42.038Z,96426.38
2022-08-05T07:11:15.301Z,96430.63
2022-08-05T07:14:01.267Z,96433.06
2022-08-05T07:18:02.206Z,96429.28
2022-08-05T07:22:28.592Z,96421.25
2022-08-05T07:24:59.082Z,96426.75
2022-08-05T07:27:58.585Z,96429.41
2022-08-05T07:30:24.592Z,96432.72
2022-08-05T07:32:58.254Z,96435.81
2022-08-05T07:36:02.888Z,96433.94
2022-08-05T07:38:32.835Z,96447.22
2022-08-05T07:41:16.841Z,96435.44
2022-08-05T07:43:51.571Z,96438.91
2022-08-05T07:46:25.093Z,96446.66
2022-08-05T07:49:02.311Z,96442.25
2022-08-05T07:51:37.295Z,96447.25
2022-08-05T07:54:09.975Z,96431.00
2022-08-05T07:57:02.875Z,96451.50
2022-08-05T07:59:38.082Z,96446.91
2022-08-05T08:02:15.306Z,96459.97
2022-08-05T08:04:44.774Z,96460.53
2022-08-05T08:07:13.195Z,96464.75
2022-08-05T08:09:40.932Z,96465.25
2022-08-05T08:12:30.578Z,96466.72
2022-08-05T08:15:02.427Z,96473.28
2022-08-05T08:17:30.963Z,96472.91
2022-08-05T08:20:22.572Z,96479.66
2022-08-05T08:22:52.078Z,96466.41
2022-08-05T08:25:26.398Z,96474.78
2022-08-05T08:28:03.827Z,96476.50
2022-08-05T08:30:40.828Z,96474.72
2022-08-05T08:33:16.027Z,96483.75
2022-08-05T08:35:53.913Z,96485.97
2022-08-05T08:38:36.044Z,96482.91
2022-08-05T08:41:08.147Z,96470.47
2022-08-05T08:45:20.172Z,96469.53
2022-08-05T08:46:29.006Z,96482.00
2022-08-05T08:49:06.429Z,96476.91
2022-08-05T08:52:03.337Z,96479.38
2022-08-05T08:54:36.514Z,96472.44
2022-08-05T08:57:06.501Z,96487.56
2022-08-05T08:59:41.936Z,96483.75
2022-08-05T09:02:18.991Z,96487.13
2022-08-05T09:05:16.283Z,96474.13
2022-08-05T09:07:39.842Z,96490.75
2022-08-05T09:10:27.685Z,96465.84
2022-08-05T09:13:04.511Z,96480.88
2022-08-05T09:15:36.985Z,96479.44
2022-08-05T09:18:08.801Z,96468.63
2022-08-05T09:20:38.283Z,96468.03
2022-08-05T09:23:19.730Z,96469.41
2022-08-05T09:25:59.920Z,96470.63
2022-08-05T09:28:31.525Z,96451.50
2022-08-05T09:31:18.258Z,96462.53
2022-08-05T09:33:56.279Z,96455.47
2022-08-05T09:36:27.796Z,96449.47
2022-08-05T09:39:03.053Z,96451.03
2022-08-05T09:41:32.777Z,96445.66
2022-08-05T09:44:06.202Z,96446.03
2022-08-05T09:46:35.512Z,96444.63
2022-08-05T09:49:19.001Z,96443.25
2022-08-05T09:51:49.533Z,96437.91
2022-08-05T09:54:21.390Z,96428.41
2022-08-05T09:57:01.283Z,96427.97
2022-08-05T09:59:35.146Z,96424.13
2022-08-05T10:02:05.909Z,96424.63
2022-08-05T10:04:40.950Z,96408.50
2022-08-05T10:07:20.281Z,96416.19
2022-08-05T10:10:14.379Z,96408.13
2022-08-05T10:12:49.760Z,96404.94
2022-08-05T10:15:25.829Z,96401.91
2022-08-05T10:18:07.256Z,96402.63
2022-08-05T10:20:40.056Z,96399.59
2022-08-05T10:23:22.183Z,96401.41
2022-08-05T10:25:56.954Z,96399.69
2022-08-05T10:28:30.328Z,96402.72
2022-08-05T10:32:54.149Z,96408.28
2022-08-05T10:33:52.423Z,96409.00
2022-08-05T10:36:26.281Z,96398.78
2022-08-05T10:39:00.226Z,96393.13
2022-08-05T10:41:46.742Z,96399.22
2022-08-05T10:44:19.366Z,96393.22
2022-08-05T10:46:51.075Z,96387.66
2022-08-05T10:49:27.068Z,96374.97
2022-08-05T10:52:05.296Z,96365.88
2022-08-05T10:54:56.914Z,96386.00
2022-08-05T10:57:29.566Z,96380.13
2022-08-05T11:00:20.087Z,96379.44
2022-08-05T11:03:23.573Z,96374.34
2022-08-05T11:06:15.734Z,96366.00
2022-08-05T11:09:39.152Z,96364.75
2022-08-05T11:12:50.762Z,96366.16
2022-08-05T11:16:00.687Z,96366.16
2022-08-05T11:18:27.017Z,96373.56
2022-08-05T11:20:57.648Z,96367.47
2022-08-05T11:24:02.655Z,96367.66
2022-08-05T11:26:28.172Z,96366.81
2022-08-05T11:29:05.161Z,96353.72
2022-08-05T11:31:58.122Z,96365.59
2022-08-05T11:34:39.464Z,96351.44
2022-08-05T11:38:29.218Z,96350.53
2022-08-05T11:40:02.873Z,96347.06
2022-08-05T11:42:37.963Z,96346.22
2022-08-05T11:45:14.358Z,96334.47
2022-08-05T11:47:54.711Z,96346.97
2022-08-05T11:50:22.935Z,96344.78
2022-08-05T11:52:54.386Z,96350.97
2022-08-05T11:55:32.332Z,96339.03
2022-08-05T11:58:09.555Z,96348.28
2022-08-05T12:00:44.452Z,96341.69
2022-08-05T12:03:28.586Z,96334.03
2022-08-05T12:06:06.083Z,96328.91
2022-08-05T12:08:51.208Z,96328.72
2022-08-05T12:11:21.478Z,96321.69
2022-08-05T12:13:58.576Z,96317.22
2022-08-05T12:16:30.738Z,96316.75
2022-08-05T12:18:58.777Z,96313.50
2022-08-05T12:21:30.037Z,96319.09
2022-08-05T12:24:04.514Z,96320.75
2022-08-05T12:26:35.365Z,96316.00
2022-08-05T12:29:04.389Z,96303.09
2022-08-05T12:31:46.093Z,96295.47
2022-08-05T12:34:21.237Z,96309.25
2022-08-05T12:36:53.313Z,96302.84
2022-08-05T12:39:21.998Z,96304.44
2022-08-05T12:41:51.337Z,96299.88
2022-08-05T12:44:33.110Z,96298.72
2022-08-05T12:47:03.849Z,96298.00
2022-08-05T12:50:03.113Z,96293.63
2022-08-05T12:52:39.624Z,96290.44
2022-08-05T12:55:23.650Z,96279.94
2022-08-05T12:58:48.594Z,96281.50
2022-08-05T13:02:03.141Z,96270.41
2022-08-05T13:03:42.170Z,96265.38
2022-08-05T13:06:15.853Z,96268.94
2022-08-05T13:08:51.398Z,96269.63
2022-08-05T13:11:57.945Z,96260.47
2022-08-05T13:14:14.848Z,96252.06
2022-08-05T13:16:47.403Z,96250.94
2022-08-05T13:19:16.583Z,96243.41
2022-08-05T13:21:55.909Z,96234.06
2022-08-05T13:24:27.732Z,96233.44
2022-08-05T13:27:17.202Z,96229.38
2022-08-05T13:30:31.612Z,96226.28
2022-08-05T13:32:42.275Z,96224.94
2022-08-05T13:35:22.235Z,96224.53
2022-08-05T13:38:05.023Z,96219.22
2022-08-05T13:40:51.737Z,96226.22
2022-08-05T13:43:22.189Z,96225.06
2022-08-05T13:45:50.786Z,96216.97
2022-08-05T13:48:58.484Z,96218.75
2022-08-05T13:51:09.526Z,96229.41
2022-08-05T13:53:47.540Z,96220.69
2022-08-05T13:56:18.985Z,96219.91
2022-08-05T13:58:52.743Z,96223.00
2022-08-05T14:01:27.493Z,96224.22
2022-08-05T14:04:26.951Z,96225.97
2022-08-05T14:06:58.629Z,96220.47
2022-08-05T14:09:46.096Z,96218.22
2022-08-05T14:12:18.143Z,96227.28
2022-08-05T14:15:00.173Z,96224.66
2022-08-05T14:17:28.264Z,96231.28
2022-08-05T14:20:00.883Z,96229.56
2022-08-05T14:22:34.289Z,96227.34
2022-08-05T14:25:02.666Z,96225.81
2022-08-05T14:27:34.279Z,96214.56
2022-08-05T14:30:02.086Z,96218.13
2022-08-05T14:32:32.410Z,96215.31
2022-08-05T14:35:01.212Z,96206.09
2022-08-05T14:37:44.834Z,96198.31
2022-08-05T14:40:18.004Z,96203.69
2022-08-05T14:42:45.750Z,96197.28
2022-08-05T14:45:13.466Z,96200.00
2022-08-05T14:48:03.417Z,96193.50
2022-08-05T14:50:30.710Z,96189.47
2022-08-05T14:52:59.566Z,96190.34
2022-08-05T14:55:39.505Z,96196.06
2022-08-05T14:58:11.553Z,96186.03
2022-08-05T15:00:58.198Z,96194.97
2022-08-05T15:03:26.853Z,96193.03
2022-08-05T15:06:06.867Z,96184.69
2022-08-05T15:08:59.363Z,96186.00
2022-08-05T15:11:52.407Z,96189.09
2022-08-05T15:14:33.471Z,96188.97
2022-08-05T15:17:00.645Z,96188.66
2022-08-05T15:19:28.483Z,96191.53
2022-08-05T15:22:00.312Z,96182.91
2022-08-05T15:24:29.036Z,96184.97
2022-08-05T15:26:58.178Z,96190.03
2022-08-05T15:29:30.311Z,96182.53
2022-08-05T15:32:03.248Z,96184.91
2022-08-05T15:34:34.078Z,96189.16
2022-08-05T15:37:06.210Z,96186.50
2022-08-05T15:41:04.708Z,96182.06
2022-08-05T15:42:53.462Z,96194.41
2022-08-05T15:45:12.324Z,96196.66
2022-08-05T15:47:40.503Z,96199.50
2022-08-05T15:50:09.622Z,96197.03
2022-08-05T15:52:53.182Z,96196.94
2022-08-05T15:55:24.997Z,96185.44
2022-08-05T15:58:16.827Z,96189.47
2022-08-05T16:00:50.273Z,96189.16
2022-08-05T16:03:24.788Z,96184.81
2022-08-05T16:05:52.867Z,96184.38
2022-08-05T16:08:24.010Z,96183.06
2022-08-05T16:10:58.706Z,96183.63
2022-08-05T16:13:34.109Z,96179.84
2022-08-05T16:16:03.377Z,96172.16
2022-08-05T16:18:32.626Z,96175.69
2022-08-05T16:21:04.359Z,96175.59
2022-08-05T16:23:53.284Z,96167.84
2022-08-05T16:26:26.471Z,96158.78
2022-08-05T16:28:56.713Z,96145.50
2022-08-05T16:31:24.728Z,96141.38
2022-08-05T16:33:53.697Z,96134.03
2022-08-05T16:36:24.020Z,96131.91
2022-08-05T16:38:55.619Z,96130.66
2022-08-05T16:42:15.014Z,96127.25
2022-08-05T16:44:15.415Z,96116.13
2022-08-05T16:46:55.969Z,96118.13
2022-08-05T16:49:26.349Z,96121.81
2022-08-05T16:51:56.847Z,96105.75
2022-08-05T16:54:30.360Z,96127.25
2022-08-05T16:57:00.780Z,96121.44
2022-08-05T16:59:30.953Z,96132.25
2022-08-05T17:01:59.480Z,96142.19
2022-08-05T17:04:29.110Z,96151.59
2022-08-05T17:07:00.882Z,96170.91
2022-08-05T17:09:30.260Z,96199.13
2022-08-05T17:11:59.155Z,96258.88
2022-08-05T17:14:34.142Z,96311.50
2022-08-05T17:17:09.451Z,96298.03
2022-08-05T17:19:45.694Z,96337.94
2022-08-05T17:22:24.477Z,96331.69
2022-08-05T17:24:57.250Z,96312.84
2022-08-05T17:27:27.228Z,60175.97
2022-08-05T17:30:02.506Z,60175.97
2022-08-05T17:32:33.843Z,60175.97
2022-08-05T17:35:02.556Z,60175.97
2022-08-05T17:37:40.209Z,60175.97
2022-08-05T17:40:12.558Z,60175.97
2022-08-05T17:42:41.766Z,60175.97
2022-08-05T17:45:38.975Z,96277.25
2022-08-05T17:48:08.019Z,96267.31
2022-08-05T17:50:35.955Z,96259.88
2022-08-05T17:53:05.143Z,96262.66
2022-08-05T17:55:37.825Z,96275.50
2022-08-05T17:58:12.850Z,96276.03
2022-08-05T18:00:45.366Z,96291.34
2022-08-05T18:06:11.671Z,96330.75
2022-08-05T18:08:44.699Z,96369.78
2022-08-05T18:11:24.234Z,96442.22
2022-08-05T18:14:03.310Z,96465.06
2022-08-05T18:16:33.608Z,96446.78
2022-08-05T18:19:01.374Z,96442.63
2022-08-05T18:22:09.438Z,96441.03
2022-08-05T18:24:16.905Z,96459.47
2022-08-05T18:26:44.686Z,96493.28
2022-08-05T18:29:16.733Z,96498.06
2022-08-05T18:31:46.171Z,96499.97
2022-08-05T18:34:17.488Z,96498.66
2022-08-05T18:36:49.552Z,96502.50
2022-08-05T18:39:42.423Z,96492.13
2022-08-05T18:42:10.946Z,96496.72
2022-08-05T18:44:49.384Z,96525.31
2022-08-05T18:47:26.734Z,96556.38
2022-08-05T18:50:13.298Z,96580.81
2022-08-05T18:52:50.455Z,96607.41
2022-08-05T18:55:20.267Z,96638.19
2022-08-05T18:57:53.492Z,96650.09
2022-08-05T19:00:29.098Z,96649.13
2022-08-05T19:03:04.185Z,96675.25
2022-08-05T19:06:12.178Z,96674.00
2022-08-05T19:08:30.826Z,96676.06
2022-08-05T19:11:04.614Z,96675.56
2022-08-05T19:13:35.977Z,96708.94
2022-08-05T19:16:05.767Z,96711.19
2022-08-05T19:18:56.760Z,96685.66
2022-08-05T19:21:27.676Z,96673.75
2022-08-05T19:24:07.299Z,96688.00
2022-08-05T19:26:43.800Z,96687.31
2022-08-05T19:29:24.289Z,96702.19
2022-08-05T19:32:03.419Z,96704.84
2022-08-05T19:34:33.658Z,96679.66
2022-08-05T19:37:01.460Z,96673.63
2022-08-05T19:39:30.497Z,96679.75
2022-08-05T19:42:08.102Z,96684.72
2022-08-05T19:44:44.869Z,96672.34
2022-08-05T19:47:15.278Z,96676.50
2022-08-05T19:49:46.098Z,96690.03
2022-08-05T19:52:40.556Z,96685.22
2022-08-05T19:55:06.863Z,96689.38
2022-08-05T19:57:47.295Z,96705.53
2022-08-05T20:00:23.511Z,96728.84
2022-08-05T20:02:52.271Z,96726.63
2022-08-05T20:05:24.529Z,96727.91
2022-08-05T20:07:57.714Z,96720.50
2022-08-05T20:10:27.132Z,96732.63
2022-08-05T20:12:55.109Z,96752.84
2022-08-05T20:15:52.253Z,96776.75
2022-08-05T20:18:32.606Z,96780.50
2022-08-05T20:21:00.412Z,96782.34
2022-08-05T20:23:39.654Z,96789.91
2022-08-05T20:26:17.291Z,96790.63
2022-08-05T20:28:47.943Z,96783.53
2022-08-05T20:31:16.638Z,96763.28
2022-08-05T20:33:45.343Z,96759.88
2022-08-05T20:36:16.370Z,96751.56
2022-08-05T20:38:53.274Z,96764.19
2022-08-05T20:41:26.667Z,96747.72
2022-08-05T20:43:58.744Z,96747.66
2022-08-05T20:46:29.946Z,96755.75
2022-08-05T20:48:57.934Z,96751.97
2022-08-05T20:51:27.641Z,96756.34
2022-08-05T20:53:56.648Z,96749.88
2022-08-05T20:56:29.787Z,96760.19
2022-08-05T20:59:04.137Z,96762.09
2022-08-05T21:01:42.414Z,96748.94
2022-08-05T21:04:10.918Z,96750.44
2022-08-05T21:06:45.921Z,96762.22
2022-08-05T21:09:14.751Z,96765.19
2022-08-05T21:12:09.615Z,96770.69
2022-08-05T21:14:31.436Z,96778.72
2022-08-05T21:17:05.497Z,96780.38
2022-08-05T21:19:46.790Z,96774.19
2022-08-05T21:22:21.775Z,96765.31
2022-08-05T21:24:52.598Z,96752.75
2022-08-05T21:27:25.391Z,96757.72
2022-08-05T21:29:56.222Z,96756.75
2022-08-05T21:32:27.116Z,96768.81
2022-08-05T21:35:17.346Z,96770.72
2022-08-05T21:37:49.671Z,96780.13
2022-08-05T21:40:21.172Z,96779.63
2022-08-05T21:42:49.041Z,96788.75
2022-08-05T21:45:51.479Z,96785.03
2022-08-05T21:48:08.033Z,96783.47
2022-08-05T21:50:36.772Z,96787.59
2022-08-05T21:53:16.101Z,96789.34
2022-08-05T21:56:04.882Z,96809.41
2022-08-05T21:58:32.533Z,96814.25
2022-08-05T22:01:01.394Z,96836.56
2022-08-05T22:03:51.735Z,96824.59
2022-08-05T22:06:23.019Z,96834.94
2022-08-05T22:09:15.122Z,96833.75
2022-08-05T22:11:43.545Z,96834.13
2022-08-05T22:14:34.667Z,96836.53
2022-08-05T22:17:06.925Z,96839.28
2022-08-05T22:20:01.441Z,96828.03
2022-08-05T22:22:27.389Z,96838.06
2022-08-05T22:25:21.292Z,96826.25
2022-08-05T22:28:08.276Z,96852.47
2022-08-05T22:30:43.969Z,96861.03
2022-08-05T22:33:57.348Z,96864.94
2022-08-05T22:36:14.246Z,96865.22
2022-08-05T22:38:42.844Z,96869.59
2022-08-05T22:41:12.199Z,96872.38
2022-08-05T22:43:42.829Z,96876.09
2022-08-05T22:46:13.615Z,96882.31
2022-08-05T22:48:51.254Z,96869.69
2022-08-05T22:51:22.652Z,96877.53
2022-08-05T22:53:51.950Z,96887.94
2022-08-05T22:56:30.742Z,96869.09
2022-08-05T22:59:00.072Z,96872.63
2022-08-05T23:01:50.866Z,96866.50
2022-08-05T23:04:21.188Z,96863.97
2022-08-05T23:06:48.891Z,96858.63
2022-08-05T23:09:52.590Z,96855.22
2022-08-05T23:12:06.616Z,96851.75
2022-08-05T23:14:34.583Z,96853.75
2022-08-05T23:17:24.615Z,96814.09
2022-08-05T23:20:02.371Z,96855.91
2022-08-05T23:22:30.884Z,96842.56
2022-08-05T23:24:58.889Z,96826.47
2022-08-05T23:27:42.280Z,96827.31
2022-08-05T23:30:16.796Z,96829.06
2022-08-05T23:32:45.129Z,96834.69
2022-08-05T23:35:13.207Z,96833.97
2022-08-05T23:37:41.333Z,96839.25
2022-08-05T23:40:11.894Z,96839.53
2022-08-05T23:42:41.049Z,96837.44
2022-08-05T23:45:15.996Z,96838.44
2022-08-05T23:47:48.043Z,96832.34
2022-08-05T23:50:20.293Z,96826.00
2022-08-05T23:52:49.828Z,96828.97
2022-08-05T23:55:19.166Z,96816.16
2022-08-05T23:57:48.907Z,96827.88
